CheckWX is a tool to help pilots better visualize weather data.  It is not intended as a substitute for an official pre-flight weather briefing.

01:10:24 UTC

GVNP TAF
Praia International Airport
Praia, Cape Verde
TAF GVNP 132300Z 1400/1506 VRB03KT 8000 BKN015 PROB40 TEMPO 1402/1406 -RA BKN012 BKN018 TEMPO 1410/1414 08010KT BECMG 1415/1417 35008KT FEW015

Jul-14@
00:00 UTC

Jul-14 @ 00:00 UTC

Jul-14@
15:00 UTC

Jul-14 @ 15:00 UTC

TAF GVNP 132300Z 1400/1506 VRB03KT 8000 BKN015

Expired

Wind
  • Variable at 3 KTS
Cloud Levels
  • Broken at 1,500' AGL

Jul-14@
02:00 UTC

Jul-14 @ 02:00 UTC

Jul-14@
06:00 UTC

Jul-14 @ 06:00 UTC

PROB40 TEMPO 1402/1406 -RA BKN012 BKN018

Expired

Conditions
Light Rain
Cloud Levels
  • Broken at 1,200' AGL
  • Broken at 1,800' AGL

Jul-14@
10:00 UTC

Jul-14 @ 10:00 UTC

Jul-14@
14:00 UTC

Jul-14 @ 14:00 UTC

TEMPO 1410/1414 08010KT

Expired

Wind
  • 080° at 10 KTS
Cloud Levels

Jul-14@
15:00 UTC

Jul-14 @ 15:00 UTC

Jul-15@
06:00 UTC

Jul-15 @ 06:00 UTC

BECMG 1415/1417 35008KT FEW015

Becoming

Becoming Conditions expected by Tue, Jul 14, 2020 @ 17:00 UTC

Wind
  • 350° at 8 KTS
Cloud Levels
  • Few at 1,500' AGL